createdAt,value
2023-05-25T00:01:49.213Z,98942.89
2023-05-25T00:04:17.610Z,98941.92
2023-05-25T00:06:47.885Z,98943.43
2023-05-25T00:09:15.523Z,98948.78
2023-05-25T00:11:43.243Z,98950.81
2023-05-25T00:14:10.843Z,98952.30
2023-05-25T00:16:41.040Z,98955.35
2023-05-25T00:19:11.174Z,98955.79
2023-05-25T00:21:38.834Z,98954.21
2023-05-25T00:24:06.418Z,98955.11
2023-05-25T00:26:35.069Z,98955.51
2023-05-25T00:29:03.942Z,98958.02
2023-05-25T00:31:35.706Z,98964.86
2023-05-25T00:34:03.333Z,98969.05
2023-05-25T00:36:30.787Z,98969.73
2023-05-25T00:38:58.177Z,98973.92
2023-05-25T00:41:26.451Z,98974.45
2023-05-25T00:43:53.808Z,98969.55
2023-05-25T00:46:22.554Z,98966.94
2023-05-25T00:48:52.707Z,98972.16
2023-05-25T00:51:20.333Z,98976.53
2023-05-25T00:53:47.748Z,98978.11
2023-05-25T00:56:17.077Z,98982.83
2023-05-25T00:58:44.455Z,98980.03
2023-05-25T01:01:12.183Z,98987.39
2023-05-25T01:03:45.984Z,98988.44
2023-05-25T01:06:15.051Z,98990.39
2023-05-25T01:08:44.417Z,98995.64
2023-05-25T01:11:11.989Z,98995.78
2023-05-25T01:13:39.641Z,98995.41
2023-05-25T01:16:07.644Z,98994.54
2023-05-25T01:18:35.092Z,98996.63
2023-05-25T01:21:31.153Z,99002.42
2023-05-25T01:24:12.092Z,99001.92
2023-05-25T01:26:44.709Z,99000.05
2023-05-25T01:29:12.465Z,98996.05
2023-05-25T01:31:39.935Z,98998.86
2023-05-25T01:34:07.478Z,99002.90
2023-05-25T01:36:34.925Z,99002.17
2023-05-25T01:39:06.970Z,99003.39
2023-05-25T01:41:34.431Z,99005.15
2023-05-25T01:44:01.924Z,99007.95
2023-05-25T01:46:36.977Z,99009.00
2023-05-25T01:49:30.518Z,99007.09
2023-05-25T01:52:24.118Z,99008.85
2023-05-25T01:55:02.972Z,99007.67
2023-05-25T01:57:31.186Z,99008.59
2023-05-25T02:00:00.519Z,99005.81
2023-05-25T02:02:27.947Z,99003.92
2023-05-25T02:04:55.789Z,99009.03
2023-05-25T02:07:23.472Z,99012.55
2023-05-25T02:09:51.309Z,99015.01
2023-05-25T02:12:18.714Z,99013.44
2023-05-25T02:14:48.497Z,99009.08
2023-05-25T02:17:17.881Z,99015.56
2023-05-25T02:19:46.677Z,99015.56
2023-05-25T02:22:14.143Z,99012.98
2023-05-25T02:24:42.228Z,99016.90
2023-05-25T02:27:12.922Z,99023.39
2023-05-25T02:29:40.861Z,99023.42
2023-05-25T02:32:08.272Z,99026.74
2023-05-25T02:34:35.921Z,99035.33
2023-05-25T02:37:03.562Z,99034.84
2023-05-25T02:39:31.016Z,99029.59
2023-05-25T02:41:58.792Z,99034.34
2023-05-25T02:44:26.782Z,99039.90
2023-05-25T02:46:55.600Z,99035.11
2023-05-25T02:49:23.718Z,99034.71
2023-05-25T02:51:51.325Z,99037.48
2023-05-25T02:54:19.195Z,99036.88
2023-05-25T02:56:46.751Z,99030.52
2023-05-25T02:59:15.911Z,99035.80
2023-05-25T03:01:43.671Z,99036.13
2023-05-25T03:04:11.189Z,99034.91
2023-05-25T03:06:38.820Z,99034.73
2023-05-25T03:09:09.981Z,99038.39
2023-05-25T03:11:38.419Z,99042.47
2023-05-25T03:14:06.135Z,99037.10
2023-05-25T03:16:36.579Z,99041.02
2023-05-25T03:19:08.713Z,99037.33
2023-05-25T03:21:38.081Z,99039.28
2023-05-25T03:24:06.357Z,99037.45
2023-05-25T03:26:34.641Z,99041.55
2023-05-25T03:29:02.330Z,99048.05
2023-05-25T03:31:30.234Z,99048.23
2023-05-25T03:33:58.271Z,99055.59
2023-05-25T03:36:31.057Z,99056.20
2023-05-25T03:38:58.581Z,99056.31
2023-05-25T03:41:27.109Z,99052.55
2023-05-25T03:43:54.735Z,99055.63
2023-05-25T03:46:22.245Z,99056.14
2023-05-25T03:48:49.956Z,99050.23
2023-05-25T03:51:17.617Z,99050.77
2023-05-25T03:53:46.122Z,99050.74
2023-05-25T03:56:13.744Z,99055.59
2023-05-25T03:58:41.634Z,99060.34
2023-05-25T04:01:10.571Z,99062.11
2023-05-25T04:03:38.374Z,99063.10
2023-05-25T04:06:06.195Z,99058.09
2023-05-25T04:08:34.340Z,99065.73
2023-05-25T04:11:02.400Z,99070.72
2023-05-25T04:13:29.940Z,99058.38
2023-05-25T04:15:58.399Z,99066.93
2023-05-25T04:18:31.654Z,99071.65
2023-05-25T04:21:04.836Z,99072.22
2023-05-25T04:23:34.889Z,99068.58
2023-05-25T04:26:06.169Z,99071.01
2023-05-25T04:28:33.752Z,99070.36
2023-05-25T04:31:13.671Z,99075.44
2023-05-25T04:33:51.938Z,99076.48
2023-05-25T04:36:32.871Z,99080.77
2023-05-25T04:39:03.262Z,99087.58
2023-05-25T04:41:31.340Z,99093.27
2023-05-25T04:44:09.631Z,99099.64
2023-05-25T04:46:44.739Z,99102.89
2023-05-25T04:49:21.966Z,99106.67
2023-05-25T04:51:49.337Z,99107.90
2023-05-25T04:54:17.001Z,99106.06
2023-05-25T04:56:44.861Z,99104.39
2023-05-25T04:59:12.348Z,99102.11
2023-05-25T05:01:42.300Z,99105.05
2023-05-25T05:04:12.471Z,99106.88
2023-05-25T05:06:39.883Z,99103.64
2023-05-25T05:09:08.920Z,99105.30
2023-05-25T05:11:36.306Z,99104.95
2023-05-25T05:14:04.562Z,99103.52
2023-05-25T05:16:35.207Z,99106.08
2023-05-25T05:19:03.173Z,99106.63
2023-05-25T05:21:30.785Z,99109.23
2023-05-25T05:23:58.309Z,99117.81
2023-05-25T05:26:27.785Z,99128.71
2023-05-25T05:28:55.621Z,99124.57
2023-05-25T05:31:24.484Z,99124.69
2023-05-25T05:33:51.898Z,99117.91
2023-05-25T05:36:19.394Z,99114.35
2023-05-25T05:38:47.094Z,99110.17
2023-05-25T05:41:14.620Z,99109.94
2023-05-25T05:43:46.665Z,99115.90
2023-05-25T05:46:14.104Z,99122.63
2023-05-25T05:48:42.561Z,99112.52
2023-05-25T05:51:10.642Z,99115.63
2023-05-25T05:53:38.286Z,99110.55
2023-05-25T05:56:07.185Z,99118.48
2023-05-25T05:58:35.035Z,99121.78
2023-05-25T06:01:04.375Z,99125.84
2023-05-25T06:03:31.793Z,99134.44
2023-05-25T06:05:59.316Z,99133.98
2023-05-25T06:08:27.673Z,99132.14
2023-05-25T06:10:56.209Z,99130.93
2023-05-25T06:13:23.775Z,99126.31
2023-05-25T06:15:51.974Z,99127.75
2023-05-25T06:18:22.777Z,99127.41
2023-05-25T06:20:50.467Z,99125.83
2023-05-25T06:23:19.463Z,99125.09
2023-05-25T06:25:52.447Z,99126.02
2023-05-25T06:28:20.103Z,99126.30
2023-05-25T06:30:49.114Z,99127.52
2023-05-25T06:33:16.924Z,99132.90
2023-05-25T06:35:44.599Z,99138.73
2023-05-25T06:38:12.714Z,99141.55
2023-05-25T06:40:40.049Z,99148.73
2023-05-25T06:43:07.502Z,99147.81
2023-05-25T06:45:42.463Z,99147.12
2023-05-25T06:49:37.824Z,99149.65
2023-05-25T06:52:06.469Z,99149.45
2023-05-25T06:54:34.211Z,99144.70
2023-05-25T06:57:01.634Z,99137.64
2023-05-25T06:59:29.753Z,99138.04
2023-05-25T07:01:59.232Z,99135.40
2023-05-25T07:04:27.685Z,99143.18
2023-05-25T07:06:55.194Z,99142.29
2023-05-25T07:09:23.679Z,99140.99
2023-05-25T07:11:52.079Z,99144.75
2023-05-25T07:14:19.422Z,99139.06
2023-05-25T07:16:46.822Z,99139.39
2023-05-25T07:19:14.265Z,99145.53
2023-05-25T07:21:41.694Z,99152.56
2023-05-25T07:24:09.483Z,99156.56
2023-05-25T07:26:37.194Z,99151.37
2023-05-25T07:29:04.716Z,99148.69
2023-05-25T07:31:32.111Z,99148.73
2023-05-25T07:33:59.672Z,99158.59
2023-05-25T07:36:26.981Z,99158.19
2023-05-25T07:38:54.322Z,99159.58
2023-05-25T07:41:21.649Z,99159.14
2023-05-25T07:43:49.186Z,99159.16
2023-05-25T07:46:17.385Z,99162.33
2023-05-25T07:48:44.816Z,99160.41
2023-05-25T07:51:12.242Z,99164.97
2023-05-25T07:53:40.143Z,99165.98
2023-05-25T07:56:10.462Z,99161.44
2023-05-25T07:58:38.090Z,99170.33
2023-05-25T08:01:05.682Z,99169.44
2023-05-25T08:03:48.125Z,99172.42
2023-05-25T08:06:17.358Z,99164.06
2023-05-25T08:08:47.604Z,99162.91
2023-05-25T08:11:15.147Z,99168.73
2023-05-25T08:13:42.957Z,99158.86
2023-05-25T08:16:10.286Z,99159.66
2023-05-25T08:18:37.620Z,99158.75
2023-05-25T08:21:05.151Z,99164.92
2023-05-25T08:23:32.467Z,99160.96
2023-05-25T08:26:01.213Z,99164.46
2023-05-25T08:28:28.795Z,99164.94
2023-05-25T08:30:58.302Z,99173.31
2023-05-25T08:33:26.213Z,99164.47
2023-05-25T08:35:53.855Z,99159.27
2023-05-25T08:38:25.186Z,99160.86
2023-05-25T08:41:06.249Z,99153.86
2023-05-25T08:43:34.098Z,99157.15
2023-05-25T08:46:06.460Z,99164.50
2023-05-25T08:48:41.807Z,99158.60
2023-05-25T08:51:11.702Z,99155.80
2023-05-25T08:53:40.855Z,99155.73
2023-05-25T08:56:16.867Z,99157.45
2023-05-25T08:58:57.395Z,99159.32
2023-05-25T09:01:26.295Z,99149.58
2023-05-25T09:03:54.315Z,99158.00
2023-05-25T09:06:21.652Z,99156.88
2023-05-25T09:08:49.151Z,99148.30
2023-05-25T09:11:17.721Z,99152.48
2023-05-25T09:13:53.926Z,99150.80
2023-05-25T09:16:21.376Z,99154.20
2023-05-25T09:18:49.478Z,99156.53
2023-05-25T09:21:16.830Z,99149.55
2023-05-25T09:23:44.236Z,99152.89
2023-05-25T09:26:11.673Z,99151.24
2023-05-25T09:28:46.911Z,99151.58
2023-05-25T09:31:17.569Z,99147.70
2023-05-25T09:33:46.128Z,99153.64
2023-05-25T09:36:18.147Z,99155.83
2023-05-25T09:38:46.292Z,99149.19
2023-05-25T09:41:14.073Z,99159.35
2023-05-25T09:43:46.581Z,99156.02
2023-05-25T09:46:21.995Z,99160.07
2023-05-25T09:48:58.230Z,99158.59
2023-05-25T09:51:37.745Z,99159.20
2023-05-25T09:54:05.478Z,99160.37
2023-05-25T09:56:36.162Z,99163.72
2023-05-25T09:59:04.309Z,99154.05
2023-05-25T10:01:32.643Z,99152.86
2023-05-25T10:04:04.883Z,99160.36
2023-05-25T10:06:33.614Z,99159.09
2023-05-25T10:09:01.434Z,99158.16
2023-05-25T10:11:28.919Z,99152.73
2023-05-25T10:13:56.814Z,99144.11
2023-05-25T10:16:26.325Z,99139.35
2023-05-25T10:19:16.213Z,99140.57
2023-05-25T10:21:47.906Z,99131.98
2023-05-25T10:24:17.151Z,99128.50
2023-05-25T10:26:46.416Z,99129.65
2023-05-25T10:29:13.995Z,99124.88
2023-05-25T10:31:41.547Z,99120.30
2023-05-25T10:34:09.399Z,99118.45
2023-05-25T10:36:36.801Z,99124.39
2023-05-25T10:39:04.146Z,99115.04
2023-05-25T10:41:31.600Z,99109.28
2023-05-25T10:43:59.096Z,99107.90
2023-05-25T10:46:26.452Z,99100.66
2023-05-25T10:48:54.378Z,99092.97
2023-05-25T10:51:21.864Z,99092.50
2023-05-25T10:53:59.162Z,99095.59
2023-05-25T10:56:26.672Z,99093.91
2023-05-25T10:58:54.009Z,99089.50
2023-05-25T11:01:21.437Z,99087.40
2023-05-25T11:04:16.049Z,99089.42
2023-05-25T11:06:46.775Z,99083.40
2023-05-25T11:09:33.104Z,99086.04
2023-05-25T11:12:02.489Z,99079.49
2023-05-25T11:14:31.616Z,99077.63
2023-05-25T11:17:20.838Z,99076.58
2023-05-25T11:19:56.450Z,99073.27
2023-05-25T11:22:35.509Z,99071.00
2023-05-25T11:25:04.224Z,99072.24
2023-05-25T11:27:31.873Z,99066.16
2023-05-25T11:29:59.672Z,99064.23
2023-05-25T11:32:28.366Z,99061.36
2023-05-25T11:34:57.390Z,99057.06
2023-05-25T11:37:26.616Z,99052.38
2023-05-25T11:39:54.099Z,99043.58
2023-05-25T11:42:22.839Z,99033.10
2023-05-25T11:44:50.456Z,99031.64
2023-05-25T11:47:22.890Z,99026.53
2023-05-25T11:49:50.767Z,99037.28
2023-05-25T11:52:19.059Z,99026.27
2023-05-25T11:54:46.579Z,99027.10
2023-05-25T11:57:18.155Z,99015.52
2023-05-25T11:59:50.314Z,99012.78
2023-05-25T12:02:17.773Z,99007.59
2023-05-25T12:04:59.408Z,99008.13
2023-05-25T12:07:27.324Z,99010.74
2023-05-25T12:10:07.951Z,99001.91
2023-05-25T12:12:45.877Z,99006.59
2023-05-25T12:15:20.721Z,98999.02
2023-05-25T12:17:48.740Z,99001.49
2023-05-25T12:20:16.910Z,98995.52
2023-05-25T12:22:45.134Z,99002.21
2023-05-25T12:25:13.188Z,98996.65
2023-05-25T12:27:40.909Z,98990.58
2023-05-25T12:30:09.694Z,98988.41
2023-05-25T12:33:02.595Z,98986.73
2023-05-25T12:35:32.065Z,98985.02
2023-05-25T12:38:12.424Z,98986.29
2023-05-25T12:40:41.229Z,98983.88
2023-05-25T12:43:08.778Z,98986.39
2023-05-25T12:45:40.889Z,98979.66
2023-05-25T12:48:08.282Z,98983.39
2023-05-25T12:50:37.229Z,98981.91
2023-05-25T12:53:04.941Z,98976.03
2023-05-25T12:55:33.707Z,98970.69
2023-05-25T12:58:03.038Z,98970.52
2023-05-25T13:00:37.467Z,98971.23
2023-05-25T13:03:07.765Z,98975.80
2023-05-25T13:05:39.385Z,98978.38
2023-05-25T13:08:07.247Z,98972.55
2023-05-25T13:10:37.516Z,98973.17
2023-05-25T13:13:05.001Z,98971.21
2023-05-25T13:15:32.501Z,98970.44
2023-05-25T13:17:59.952Z,98971.55
2023-05-25T13:20:28.182Z,98968.85
2023-05-25T13:22:56.025Z,98978.00
2023-05-25T13:25:23.755Z,98971.67
2023-05-25T13:27:51.868Z,98974.00
2023-05-25T13:30:21.848Z,98969.29
2023-05-25T13:32:51.452Z,98970.83
2023-05-25T13:35:23.541Z,98972.84
2023-05-25T13:37:51.400Z,98965.88
2023-05-25T13:40:19.161Z,98960.69
2023-05-25T13:42:46.787Z,98959.04
2023-05-25T13:45:14.153Z,98959.73
2023-05-25T13:47:44.006Z,98955.55
2023-05-25T13:50:11.806Z,98947.30
2023-05-25T13:52:39.182Z,98961.73
2023-05-25T13:55:07.589Z,98953.00
2023-05-25T13:57:53.682Z,98946.08
2023-05-25T14:00:39.269Z,98938.56
2023-05-25T14:03:07.127Z,98941.27
2023-05-25T14:05:34.545Z,98939.15
2023-05-25T14:08:04.668Z,98936.23
2023-05-25T14:10:32.043Z,98939.48
2023-05-25T14:12:59.496Z,98945.56
2023-05-25T14:15:26.876Z,98958.84
2023-05-25T14:17:57.126Z,98957.17
2023-05-25T14:20:26.268Z,98959.70
2023-05-25T14:22:54.153Z,98951.25
2023-05-25T14:25:21.552Z,98944.98
2023-05-25T14:27:48.874Z,98956.04
2023-05-25T14:30:16.528Z,98965.84
2023-05-25T14:32:44.041Z,98966.59
2023-05-25T14:35:11.428Z,98954.28
2023-05-25T14:37:38.804Z,98958.99
2023-05-25T14:40:06.832Z,98969.98
2023-05-25T14:42:34.794Z,98980.41
2023-05-25T14:45:02.395Z,98972.52
2023-05-25T14:47:29.720Z,98969.07
2023-05-25T14:49:57.150Z,98980.27
2023-05-25T14:52:24.557Z,98971.00
2023-05-25T14:54:52.176Z,98968.23
2023-05-25T14:57:19.489Z,98974.58
2023-05-25T14:59:46.818Z,98973.84
2023-05-25T15:02:14.245Z,98974.73
2023-05-25T15:04:41.823Z,98971.70
2023-05-25T15:07:11.529Z,98968.94
2023-05-25T15:09:40.760Z,98970.80
2023-05-25T15:12:08.210Z,98972.73
2023-05-25T15:14:39.859Z,98980.02
2023-05-25T15:17:07.233Z,98980.82
2023-05-25T15:19:34.647Z,98976.95
2023-05-25T15:22:02.025Z,98985.33
2023-05-25T15:24:29.482Z,98988.79
2023-05-25T15:26:56.950Z,98989.73
2023-05-25T15:29:24.503Z,98993.16
2023-05-25T15:31:53.116Z,98999.54
2023-05-25T15:34:21.154Z,98995.23
2023-05-25T15:36:48.588Z,98996.37
2023-05-25T15:39:15.942Z,98999.70
2023-05-25T15:41:43.331Z,98998.90
2023-05-25T15:44:12.846Z,98988.96
2023-05-25T15:46:41.094Z,98990.54
2023-05-25T15:49:11.607Z,98984.20
2023-05-25T15:51:41.720Z,98982.23
2023-05-25T15:54:12.742Z,98985.94
2023-05-25T15:56:41.706Z,98985.09
2023-05-25T15:59:12.306Z,98982.44
2023-05-25T16:01:39.887Z,98982.66
2023-05-25T16:04:08.083Z,98978.63
2023-05-25T16:06:36.384Z,98978.68
2023-05-25T16:09:04.390Z,98980.27
2023-05-25T16:11:34.127Z,98981.48
2023-05-25T16:14:01.672Z,98979.82
2023-05-25T16:16:29.738Z,98977.73
2023-05-25T16:18:57.302Z,98976.23
2023-05-25T16:21:24.916Z,98977.68
2023-05-25T16:23:52.276Z,98975.63
2023-05-25T16:26:19.932Z,98975.34
2023-05-25T16:28:47.246Z,98978.70
2023-05-25T16:31:15.813Z,98968.98
2023-05-25T16:33:45.470Z,98960.98
2023-05-25T16:36:14.147Z,98961.23
2023-05-25T16:38:41.701Z,98962.97
2023-05-25T16:41:09.208Z,98969.00
2023-05-25T16:43:36.575Z,98964.98
2023-05-25T16:46:03.994Z,98962.46
2023-05-25T16:48:31.584Z,98971.77
2023-05-25T16:50:58.941Z,98974.23
2023-05-25T16:53:26.348Z,98966.12
2023-05-25T16:55:53.723Z,98963.81
2023-05-25T16:58:21.695Z,98968.98
2023-05-25T17:00:49.056Z,98964.52
2023-05-25T17:03:16.612Z,98960.73
2023-05-25T17:05:44.400Z,98959.73
2023-05-25T17:08:11.869Z,98960.93
2023-05-25T17:10:39.236Z,98963.77
2023-05-25T17:13:06.571Z,98964.46
2023-05-25T17:15:33.935Z,98959.67
2023-05-25T17:18:01.373Z,98969.18
2023-05-25T17:20:28.814Z,98971.10
2023-05-25T17:22:56.560Z,98965.19
2023-05-25T17:25:27.192Z,98972.38
2023-05-25T17:27:55.423Z,98976.82
2023-05-25T17:30:22.753Z,98973.84
2023-05-25T17:32:50.315Z,98981.85
2023-05-25T17:35:17.655Z,98984.23
2023-05-25T17:37:44.922Z,98985.06
2023-05-25T17:40:12.920Z,98990.59
2023-05-25T17:42:40.642Z,98991.90
2023-05-25T17:45:11.512Z,98993.21
2023-05-25T17:47:38.920Z,98999.79
2023-05-25T17:50:06.863Z,99000.41
2023-05-25T17:52:34.172Z,98998.52
2023-05-25T17:55:01.533Z,98999.25
2023-05-25T17:57:28.935Z,99002.67
2023-05-25T17:59:56.199Z,99001.66
2023-05-25T18:02:24.003Z,98999.95
2023-05-25T18:04:51.379Z,98996.77
2023-05-25T18:07:21.139Z,98997.33
2023-05-25T18:09:48.540Z,99002.98
2023-05-25T18:12:15.905Z,99008.50
2023-05-25T18:14:43.266Z,99010.17
2023-05-25T18:17:11.737Z,99018.23
2023-05-25T18:19:39.380Z,99029.45
2023-05-25T18:22:06.864Z,99046.96
2023-05-25T18:24:34.196Z,99055.69
2023-05-25T18:27:03.941Z,99050.82
2023-05-25T18:29:31.745Z,99056.22
2023-05-25T18:31:59.224Z,99060.64
2023-05-25T18:34:26.752Z,99055.74
2023-05-25T18:36:54.115Z,99059.20
2023-05-25T18:39:21.514Z,99073.09
2023-05-25T18:41:49.285Z,99074.02
2023-05-25T18:44:16.698Z,99069.98
2023-05-25T18:46:46.113Z,99079.70
2023-05-25T18:49:13.869Z,99081.09
2023-05-25T18:51:41.202Z,99080.33
2023-05-25T18:54:09.001Z,99083.48
2023-05-25T18:56:36.735Z,99080.38
2023-05-25T18:59:04.130Z,99081.54
2023-05-25T19:01:32.324Z,99078.64
2023-05-25T19:07:02.136Z,99087.73
2023-05-25T19:09:29.694Z,99090.40
2023-05-25T19:11:57.430Z,99097.04
2023-05-25T19:14:24.702Z,99096.67
2023-05-25T19:16:52.353Z,99107.81
2023-05-25T19:19:19.686Z,99107.14
2023-05-25T19:21:47.090Z,99111.38
2023-05-25T19:24:14.743Z,99113.52
2023-05-25T19:26:42.172Z,99113.89
2023-05-25T19:29:09.659Z,99116.76
2023-05-25T19:31:37.058Z,99117.20
2023-05-25T19:34:04.484Z,99120.54
2023-05-25T19:36:32.801Z,99121.11
2023-05-25T19:39:00.184Z,99119.70
2023-05-25T19:41:27.913Z,99118.61
2023-05-25T19:43:55.413Z,99116.48
2023-05-25T19:46:22.741Z,99118.17
2023-05-25T19:48:50.816Z,99115.78
2023-05-25T19:51:18.215Z,99116.86
2023-05-25T19:53:47.969Z,99121.25
2023-05-25T19:56:15.557Z,99124.05
2023-05-25T19:58:43.523Z,99123.17
2023-05-25T20:01:11.374Z,99125.94
2023-05-25T20:03:39.114Z,99133.05
2023-05-25T20:06:06.608Z,99130.00
2023-05-25T20:08:34.082Z,99131.79
2023-05-25T20:11:02.368Z,99134.95
2023-05-25T20:13:29.796Z,99141.11
2023-05-25T20:15:57.140Z,99141.88
2023-05-25T20:18:24.494Z,99140.67
2023-05-25T20:20:51.828Z,99134.39
2023-05-25T20:23:19.345Z,99141.09
2023-05-25T20:25:46.853Z,99143.14
2023-05-25T20:28:14.387Z,99148.09
2023-05-25T20:30:42.034Z,99150.34
2023-05-25T20:33:09.455Z,99146.73
2023-05-25T20:35:37.315Z,99140.88
2023-05-25T20:38:04.648Z,99142.76
2023-05-25T20:40:31.951Z,99143.66
2023-05-25T20:42:59.298Z,99143.41
2023-05-25T20:45:26.664Z,99145.92
2023-05-25T20:48:04.101Z,99144.80
2023-05-25T20:50:31.627Z,99143.02
2023-05-25T20:52:59.045Z,99144.20
2023-05-25T20:55:26.492Z,99144.24
2023-05-25T20:57:53.938Z,99146.23
2023-05-25T21:00:23.620Z,99144.41
2023-05-25T21:02:51.303Z,99142.37
2023-05-25T21:05:18.829Z,99138.09
2023-05-25T21:07:46.520Z,99140.61
2023-05-25T21:10:23.053Z,99139.10
2023-05-25T21:12:50.472Z,99136.84
2023-05-25T21:15:17.754Z,99142.40
2023-05-25T21:17:45.181Z,99143.14
2023-05-25T21:20:12.721Z,99143.70
2023-05-25T21:22:40.110Z,99139.49
2023-05-25T21:25:08.153Z,99139.61
2023-05-25T21:27:35.472Z,99142.17
2023-05-25T21:30:04.426Z,99139.04
2023-05-25T21:32:32.590Z,99136.43
2023-05-25T21:35:00.038Z,99136.98
2023-05-25T21:37:28.243Z,99136.55
2023-05-25T21:39:55.826Z,99135.25
2023-05-25T21:42:23.643Z,99134.79
2023-05-25T21:44:51.004Z,99140.95
2023-05-25T21:47:18.452Z,99136.98
2023-05-25T21:49:45.928Z,99137.92
2023-05-25T21:52:19.632Z,99132.61
2023-05-25T21:54:47.005Z,99132.53
2023-05-25T21:57:14.478Z,99127.22
2023-05-25T21:59:41.731Z,99130.32
2023-05-25T22:02:09.318Z,99129.86
2023-05-25T22:04:36.795Z,99128.00
2023-05-25T22:07:22.412Z,99123.18
2023-05-25T22:09:49.723Z,99125.66
2023-05-25T22:12:17.117Z,99124.78
2023-05-25T22:14:44.449Z,99126.39
2023-05-25T22:17:11.918Z,99122.86
2023-05-25T22:19:39.241Z,99124.27
2023-05-25T22:22:07.055Z,99131.77
2023-05-25T22:24:43.431Z,99131.13
2023-05-25T22:27:11.057Z,99130.31
2023-05-25T22:29:38.517Z,99127.35
2023-05-25T22:32:05.884Z,99128.75
2023-05-25T22:34:33.212Z,99130.73
2023-05-25T22:37:00.549Z,99132.91
2023-05-25T22:39:27.862Z,99133.85
2023-05-25T22:41:55.246Z,99142.95
2023-05-25T22:44:22.585Z,99138.71
2023-05-25T22:46:51.074Z,99140.80
2023-05-25T22:49:18.499Z,99138.66
2023-05-25T22:51:45.959Z,99132.65
2023-05-25T22:54:13.507Z,99134.11
2023-05-25T22:56:41.130Z,99133.73
2023-05-25T22:59:08.512Z,99130.04
2023-05-25T23:01:35.864Z,99132.43
2023-05-25T23:04:03.599Z,99136.88
2023-05-25T23:06:31.235Z,99135.58
2023-05-25T23:08:58.589Z,99145.98
2023-05-25T23:11:27.134Z,99146.39
2023-05-25T23:13:54.839Z,99143.60
2023-05-25T23:16:22.646Z,99147.12
2023-05-25T23:18:51.788Z,99149.45
2023-05-25T23:21:19.115Z,99140.38
2023-05-25T23:23:46.402Z,99142.30
2023-05-25T23:26:13.743Z,99141.78
2023-05-25T23:28:41.352Z,99141.54
2023-05-25T23:31:08.664Z,99142.05
2023-05-25T23:33:36.162Z,99140.33
2023-05-25T23:36:03.640Z,99134.98
2023-05-25T23:38:31.283Z,99128.79
2023-05-25T23:40:58.592Z,99123.62
2023-05-25T23:43:26.283Z,99120.55
2023-05-25T23:45:53.598Z,99114.36
2023-05-25T23:48:21.081Z,99119.39
2023-05-25T23:50:48.768Z,99114.52
2023-05-25T23:53:16.061Z,99116.04
2023-05-25T23:55:43.703Z,99122.81
2023-05-25T23:58:11.180Z,99121.05
